Flight Track Log - Related Links

Times and Time Zones

All times are in EDT time to prevent confusion due to time zone crossing. See the UAL1494 flight status page for this flight to view local times or setup timezone preferences in your user account.

Time Position Orientation Groundspeed Altitude Reporting Facility
EDT Latitude Longitude Course Direction KTS MPH feet Rate Location/Type
Thu 01:05:05 PM 42.3667 -70.9667 270° West 177 204 1,200  Level KA90
Thu 01:06:18 PM 42.3814 -70.8744 78° East 238 274 4,100 2,662 Climbing Boston Center
Thu 01:07:18 PM 42.3906 -70.7900 82° East 238 274 7,100 2,441 Climbing Boston Center
Thu 01:08:00 PM 42.2000 -71.3274 270° West  Level FlightAware Approximate
Thu 01:08:16 PM 42.3394 -70.7267 138° Southeast 213 245 8,900  Level Boston Center
Thu 01:09:00 PM 42.2000 -71.4888 270° West  Level FlightAware Approximate
Thu 01:09:17 PM 42.2586 -70.7569 195° South 219 252 10,700  Level Boston Center
Thu 01:10:00 PM 42.2000 -71.6502 270° West  Level FlightAware Approximate
Thu 01:10:18 PM 42.2453 -70.8444 258° West 207 238 12,000  Level Boston Center
Thu 01:11:18 PM 42.2392 -71.0100 267° West 330 380 15,100 2,847 Climbing Boston Center
Thu 01:12:16 PM 42.2328 -71.1669 267° West 373 429 17,600 2,269 Climbing Boston Center
Thu 01:13:17 PM 42.2303 -71.3186 269° West 397 457 19,600 1,983 Climbing Boston Center
Thu 01:14:17 PM 42.2253 -71.4672 267° West 403 464 21,600 1,750 Climbing Boston Center
Thu 01:15:17 PM 42.2139 -71.6047 264° West 408 470 23,100 1,613 Climbing Boston Center
Thu 01:16:16 PM 42.2067 -71.7647 267° West 408 470 24,800 1,613 Climbing Boston Center
Thu 01:17:16 PM 42.2011 -71.9244 267° West 423 487 26,300 1,388 Climbing Boston Center
Thu 01:18:17 PM 42.1914 -72.0869 265° West 434 499 27,600 1,230 Climbing Boston Center
Thu 01:19:18 PM 42.1856 -72.2553 267° West 441 507 28,800 706 Climbing Boston Center
Thu 01:20:16 PM 42.1253 -72.4064 242° Southwest 446 513 29,000 303 Climbing Boston Center
Thu 01:21:17 PM 42.0544 -72.5492 236° Southwest 445 512 29,400 1,230 Climbing Boston Center
Thu 01:22:18 PM 41.9811 -72.6997 237° Southwest 453 521 31,500 1,438 Climbing Boston Center
Thu 01:23:18 PM 41.9078 -72.8389 235° Southwest 453 521 32,300 821 Climbing Boston Center
Thu 01:24:15 PM 41.8344 -72.9806 235° Southwest 458 527 33,100 966 Climbing Boston Center
Thu 01:25:16 PM 41.7586 -73.1247 235° Southwest 470 541 34,200 1,033 Climbing Boston Center
Thu 01:26:17 PM 41.6867 -73.2628 235° Southwest 470 541 35,200 671 Climbing Boston Center
Thu 01:27:48 PM 41.5706 -73.4581 232° Southwest 460 529 35,900 318 Climbing New York Center
Thu 01:28:48 PM 41.4861 -73.5878 229° Southwest 460 529 36,000 50 Climbing New York Center
Thu 01:29:49 PM 41.4019 -73.7169 229° Southwest 465 535 36,000  Level New York Center
Thu 01:30:49 PM 41.3175 -73.8403 228° Southwest 465 535 36,000  Level New York Center
Thu 01:31:48 PM 41.2328 -73.9686 229° Southwest 465 535 36,000  Level New York Center
Thu 01:32:49 PM 41.1439 -74.0967 227° Southwest 465 535 36,000  Level New York Center
Thu 01:33:50 PM 41.0614 -74.2192 228° Southwest 460 529 36,000 -50 Level New York Center
Thu 01:34:50 PM 40.9844 -74.3525 233° Southwest 455 524 35,900 -51 Descending New York Center
Thu 01:35:48 PM 40.9014 -74.4800 229° Southwest 460 529 35,900 50 Level New York Center
Thu 01:36:50 PM 40.8222 -74.6100 231° Southwest 460 529 36,000  Climbing New York Center
Thu 01:37:48 PM 40.7408 -74.7397 230° Southwest 460 529 35,900 -51 Descending New York Center
Thu 01:38:48 PM 40.6614 -74.8636 230° Southwest 455 524 35,900 49 Level New York Center
Thu 01:39:50 PM 40.5839 -74.9931 232° Southwest 455 524 36,000 49 Climbing New York Center
Thu 01:40:50 PM 40.5000 -75.1242 230° Southwest 455 524 36,000  Level New York Center
Thu 01:41:48 PM 40.4289 -75.2425 232° Southwest 462 532 36,000  Level New York Center
Thu 01:42:49 PM 40.3381 -75.3836 230° Southwest 462 532 36,000 -50 Level New York Center
Thu 01:43:49 PM 40.2769 -75.5047 237° Southwest 462 532 35,900  Descending New York Center
Thu 01:44:51 PM 40.2067 -75.6439 237° Southwest 462 532 36,000 50 Climbing New York Center
Thu 01:45:49 PM 40.1264 -75.7714 231° Southwest 457 526 36,000  Level New York Center
Thu 01:46:49 PM 40.0539 -75.9072 235° Southwest 462 532 36,000  Level New York Center
Thu 01:47:50 PM 40.0197 -76.0647 254° West 449 517 36,000  Level New York Center
Thu 01:48:50 PM 39.9386 -76.1992 232° Southwest 457 526 36,000  Level New York Center
Thu 01:49:48 PM 39.8492 -76.3250 227° Southwest 466 536 36,000  Level New York Center
Thu 01:50:48 PM 39.7661 -76.4533 230° Southwest 466 536 36,000  Level New York Center
Thu 01:51:48 PM 39.6806 -76.5814 229° Southwest 476 548 36,000  Level New York Center
Thu 01:53:03 PM 39.5728 -76.7358 228° Southwest 462 532 36,000  Level Washington Center
Thu 01:54:03 PM 39.4861 -76.8633 229° Southwest 462 532 36,000  Level Washington Center
Thu 01:55:05 PM 39.3992 -76.9881 228° Southwest 462 532 36,000  Level Washington Center
Thu 01:56:02 PM 39.3144 -77.1153 229° Southwest 468 539 36,000  Level Washington Center
Thu 01:57:03 PM 39.2272 -77.2419 228° Southwest 468 539 36,000  Level Washington Center
Thu 01:58:03 PM 39.1400 -77.3658 228° Southwest 468 539 36,000  Level Washington Center
Thu 01:59:04 PM 39.0528 -77.4919 228° Southwest 468 539 36,000  Level Washington Center
Thu 02:00:05 PM 38.9672 -77.6181 229° Southwest 468 539 36,000  Level Washington Center
Thu 02:01:03 PM 38.8731 -77.7542 228° Southwest 474 545 36,000  Level Washington Center
Thu 02:02:03 PM 38.7811 -77.8792 227° Southwest 481 554 36,000  Level Washington Center
Thu 02:03:04 PM 38.6975 -77.9989 228° Southwest 476 548 36,000  Level Washington Center
Thu 02:04:05 PM 38.6117 -78.1236 229° Southwest 471 542 36,000  Level Washington Center
Thu 02:05:03 PM 38.5233 -78.2456 227° Southwest 471 542 36,000  Level Washington Center
Thu 02:06:04 PM 38.4353 -78.3669 227° Southwest 471 542 36,000  Level Washington Center
Thu 02:07:04 PM 38.3469 -78.4906 228° Southwest 476 548 36,000  Level Washington Center
Thu 02:08:05 PM 38.2667 -78.6119 230° Southwest 471 542 36,000  Level Washington Center
Thu 02:09:03 PM 38.1847 -78.7222 227° Southwest 471 542 36,000  Level Washington Center
Thu 02:10:04 PM 38.0958 -78.8478 228° Southwest 476 548 36,000  Level Washington Center
Thu 02:11:05 PM 38.0092 -78.9653 227° Southwest 481 554 36,000  Level Washington Center
Thu 02:12:03 PM 37.9200 -79.0850 227° Southwest 476 548 36,000  Level Washington Center
Thu 02:13:03 PM 37.8447 -79.2314 237° Southwest 464 534 36,000  Level Washington Center
Thu 02:14:05 PM 37.7761 -79.3672 237° Southwest 464 534 36,000  Level Washington Center
Thu 02:15:05 PM 37.7050 -79.5028 236° Southwest 464 534 36,000  Level Washington Center
Thu 02:16:03 PM 37.6444 -79.6231 238° Southwest 464 534 36,000  Level Washington Center
Thu 02:17:04 PM 37.5686 -79.7736 238° Southwest 464 534 36,000  Level Washington Center
Thu 02:18:05 PM 37.4989 -79.9164 238° Southwest 469 540 36,000  Level Washington Center
Thu 02:19:03 PM 37.4269 -80.0536 237° Southwest 477 549 36,000  Level Washington Center
Thu 02:20:43 PM 37.3181 -80.2631 237° Southwest 455 524 36,000  Level Atlanta Center
Thu 02:21:43 PM 37.2411 -80.4125 237° Southwest 455 524 36,000  Level Atlanta Center
Thu 02:22:43 PM 37.1722 -80.5486 238° Southwest 460 529 36,000  Level Atlanta Center
Thu 02:23:43 PM 37.1031 -80.6817 237° Southwest 465 535 36,000  Level Atlanta Center
Thu 02:24:43 PM 37.0442 -80.8247 243° Southwest 470 541 36,000  Level Atlanta Center
Thu 02:25:43 PM 36.9953 -80.9489 244° Southwest 465 535 36,000  Level Atlanta Center
Thu 02:26:43 PM 36.9256 -81.0839 237° Southwest 460 529 36,000  Level Atlanta Center
Thu 02:27:43 PM 36.8581 -81.2189 238° Southwest 465 535 36,000  Level Atlanta Center
Thu 02:28:43 PM 36.7881 -81.3508 237° Southwest 465 535 36,000  Level Atlanta Center
Thu 02:29:43 PM 36.7181 -81.4956 239° Southwest 454 522 36,000  Level Atlanta Center
Thu 02:30:43 PM 36.6478 -81.6247 236° Southwest 459 528 36,000  Level Atlanta Center
Thu 02:31:43 PM 36.5792 -81.7561 237° Southwest 464 534 36,000  Level Atlanta Center
Thu 02:32:43 PM 36.5086 -81.8872 236° Southwest 464 534 36,000  Level Atlanta Center
Thu 02:33:43 PM 36.4419 -82.0156 237° Southwest 457 526 36,000  Level Atlanta Center
Thu 02:34:43 PM 36.3711 -82.1436 236° Southwest 457 526 36,000  Level Atlanta Center
Thu 02:35:43 PM 36.3042 -82.2739 238° Southwest 452 520 36,000  Level Atlanta Center
Thu 02:36:43 PM 36.2350 -82.4017 236° Southwest 452 520 36,000  Level Atlanta Center
Thu 02:37:43 PM 36.1678 -82.5289 237° Southwest 452 520 36,000  Level Atlanta Center
Thu 02:38:43 PM 36.0964 -82.6589 236° Southwest 452 520 36,000  Level Atlanta Center
Thu 02:39:43 PM 36.0289 -82.7883 237° Southwest 452 520 36,000  Level Atlanta Center
Thu 02:40:43 PM 35.9572 -82.9178 236° Southwest 452 520 36,000  Level Atlanta Center
Thu 02:41:43 PM 35.8875 -83.0467 236° Southwest 458 527 36,000  Level Atlanta Center
Thu 02:42:43 PM 35.8175 -83.1758 236° Southwest 458 527 36,000  Level Atlanta Center
Thu 02:43:43 PM 35.7494 -83.2992 236° Southwest 458 527 36,000  Level Atlanta Center
Thu 02:44:43 PM 35.6814 -83.4303 237° Southwest 458 527 36,000  Level Atlanta Center
Thu 02:45:43 PM 35.6089 -83.5586 235° Southwest 458 527 36,000  Level Atlanta Center
Thu 02:46:43 PM 35.5364 -83.6839 235° Southwest 458 527 36,000  Level Atlanta Center
Thu 02:47:43 PM 35.4678 -83.8092 236° Southwest 458 527 36,000  Level Atlanta Center
Thu 02:48:43 PM 35.3989 -83.9369 237° Southwest 458 527 36,000  Level Atlanta Center
Thu 02:49:43 PM 35.3261 -84.0642 235° Southwest 458 527 36,000  Level Atlanta Center
Thu 02:50:43 PM 35.2633 -84.1761 236° Southwest 458 527 36,000  Level Atlanta Center
Thu 02:51:43 PM 35.1922 -84.3031 236° Southwest 453 521 36,000  Level Atlanta Center
Thu 02:52:43 PM 35.1189 -84.4297 235° Southwest 453 521 36,000  Level Atlanta Center
Thu 02:53:43 PM 35.0475 -84.5564 235° Southwest 453 521 36,000  Level Atlanta Center
Thu 02:54:43 PM 34.9758 -84.6853 236° Southwest 459 528 36,000  Level Atlanta Center
Thu 02:55:43 PM 34.9042 -84.8111 235° Southwest 459 528 36,000  Level Atlanta Center
Thu 02:56:43 PM 34.8325 -84.9344 235° Southwest 459 528 36,000  Level Atlanta Center
Thu 02:57:43 PM 34.7606 -85.0603 235° Southwest 459 528 36,000  Level Atlanta Center
Thu 02:58:43 PM 34.6864 -85.1856 234° Southwest 459 528 36,000  Level Atlanta Center
Thu 02:59:43 PM 34.6164 -85.3058 235° Southwest 459 528 36,000  Level Atlanta Center
Thu 03:00:43 PM 34.5461 -85.4283 235° Southwest 454 522 36,000  Level Atlanta Center
Thu 03:01:43 PM 34.4736 -85.5506 234° Southwest 454 522 36,000  Level Atlanta Center
Thu 03:02:43 PM 34.4033 -85.6728 235° Southwest 449 517 36,000  Level Atlanta Center
Thu 03:03:43 PM 34.3264 -85.8094 236° Southwest 442 509 36,000  Level Atlanta Center
Thu 03:04:43 PM 34.2581 -85.9136 232° Southwest 442 509 36,000  Level Atlanta Center
Thu 03:05:43 PM 34.1872 -86.0378 235° Southwest 447 514 36,000  Level Atlanta Center
Thu 03:06:43 PM 34.1142 -86.1589 234° Southwest 447 514 36,000  Level Atlanta Center
Thu 03:07:43 PM 34.0411 -86.2800 234° Southwest 447 514 36,000  Level Atlanta Center
Thu 03:08:43 PM 33.9700 -86.3983 234° Southwest 447 514 36,000  Level Atlanta Center
Thu 03:09:43 PM 33.8986 -86.5189 235° Southwest 447 514 36,000  Level Atlanta Center
Thu 03:10:43 PM 33.8253 -86.6369 233° Southwest 447 514 36,000  Level Atlanta Center
Thu 03:11:43 PM 33.7539 -86.7572 235° Southwest 447 514 36,000  Level Atlanta Center
Thu 03:12:43 PM 33.6822 -86.8747 234° Southwest 447 514 36,000  Level Atlanta Center
Thu 03:13:43 PM 33.6250 -87.0025 242° Southwest 442 509 36,000  Level Atlanta Center
Thu 03:14:43 PM 33.5739 -87.1331 245° Southwest 437 503 36,000  Level Atlanta Center
Thu 03:17:04 PM 33.4458 -87.4569 245° Southwest 449 517 36,000  Level Memphis Center
Thu 03:18:04 PM 33.3903 -87.5881 243° Southwest 449 517 36,000  Level Memphis Center
Thu 03:19:04 PM 33.3369 -87.7217 244° Southwest 449 517 36,000  Level Memphis Center
Thu 03:20:04 PM 33.2853 -87.8497 244° Southwest 449 517 36,000  Level Memphis Center
Thu 03:21:03 PM 33.2294 -87.9806 243° Southwest 444 511 36,000  Level Memphis Center
Thu 03:22:04 PM 33.1778 -88.1136 245° Southwest 444 511 36,000  Level Memphis Center
Thu 03:23:04 PM 33.1317 -88.2289 244° Southwest 444 511 36,000  Level Memphis Center
Thu 03:24:04 PM 33.0794 -88.3589 244° Southwest 439 505 36,000  Level Memphis Center
Thu 03:25:04 PM 33.0233 -88.4939 244° Southwest 444 511 36,000  Level Memphis Center
Thu 03:26:04 PM 32.9689 -88.6264 244° Southwest 449 517 36,000  Level Memphis Center
Thu 03:27:04 PM 32.9142 -88.7561 243° Southwest 449 517 36,000  Level Memphis Center
Thu 03:28:04 PM 32.8572 -88.8883 243° Southwest 449 517 36,000  Level Memphis Center
Thu 03:29:04 PM 32.8025 -89.0178 243° Southwest 444 511 36,000  Level Memphis Center
Thu 03:30:04 PM 32.7475 -89.1469 243° Southwest 444 511 36,000  Level Memphis Center
Thu 03:31:04 PM 32.6922 -89.2761 243° Southwest 444 511 36,000  Level Memphis Center
Thu 03:32:04 PM 32.6369 -89.4025 243° Southwest 438 504 36,000  Level Memphis Center
Thu 03:33:04 PM 32.5836 -89.5314 244° Southwest 438 504 36,000  Level Memphis Center
Thu 03:34:04 PM 32.5258 -89.6625 242° Southwest 438 504 36,000  Level Memphis Center
Thu 03:35:04 PM 32.4703 -89.7911 243° Southwest 438 504 36,000  Level Memphis Center
Thu 03:36:04 PM 32.4144 -89.9192 243° Southwest 438 504 36,000  Level Memphis Center
Thu 03:37:04 PM 32.3583 -90.0500 243° Southwest 438 504 36,000  Level Memphis Center
Thu 03:38:04 PM 32.3003 -90.1778 242° Southwest 438 504 36,000  Level Memphis Center
Thu 03:39:04 PM 32.2461 -90.3083 244° Southwest 443 510 36,000  Level Memphis Center
Thu 03:40:50 PM 32.1522 -90.5239 243° Southwest 443 510 36,000  Level Houston Center
Thu 03:41:52 PM 32.0850 -90.6781 243° Southwest 442 509 36,000  Level Houston Center
Thu 03:42:54 PM 32.0344 -90.7928 243° Southwest 441 507 36,000  Level Houston Center
Thu 03:43:57 PM 31.9664 -90.9461 242° Southwest 441 507 36,000  Level Houston Center
Thu 03:44:59 PM 31.9089 -91.0739 242° Southwest 441 507 36,000  Level Houston Center
Thu 03:46:01 PM 31.8497 -91.2022 242° Southwest 445 512 36,000  Level Houston Center
Thu 03:47:03 PM 31.7936 -91.3306 243° Southwest 442 509 36,000  Level Houston Center
Thu 03:48:05 PM 31.7358 -91.4586 242° Southwest 443 510 36,000  Level Houston Center
Thu 03:49:07 PM 31.6664 -91.6122 242° Southwest 444 511 36,000  Level Houston Center
Thu 03:50:09 PM 31.6078 -91.7397 242° Southwest 445 512 36,000  Level Houston Center
Thu 03:51:11 PM 31.5494 -91.8667 242° Southwest 443 510 36,000  Level Houston Center
Thu 03:52:14 PM 31.4908 -91.9956 242° Southwest 446 513 36,000 -48 Level Houston Center
Thu 03:53:16 PM 31.4239 -92.1344 241° Southwest 441 507 35,900  Descending Houston Center
Thu 03:54:18 PM 31.3656 -92.2625 242° Southwest 446 513 36,000 48 Climbing Houston Center
Thu 03:55:20 PM 31.3064 -92.3900 242° Southwest 441 507 36,000  Level Houston Center
Thu 03:56:22 PM 31.2464 -92.5169 241° Southwest 448 516 36,000 -48 Level Houston Center
Thu 03:57:24 PM 31.1786 -92.6392 237° Southwest 460 529 35,900  Descending Houston Center
Thu 03:58:26 PM 31.1119 -92.7603 237° Southwest 449 517 36,000 -48 Climbing Houston Center
Thu 03:59:28 PM 31.0300 -92.9058 237° Southwest 448 516 35,800 -532 Descending Houston Center
Thu 04:00:30 PM 30.9611 -93.0275 237° Southwest 451 519 34,900 -912 Descending Houston Center
Thu 04:01:33 PM 30.8908 -93.1528 237° Southwest 460 529 33,900 -864 Descending Houston Center
Thu 04:02:35 PM 30.8211 -93.2756 237° Southwest 459 528 33,100 -919 Descending Houston Center
Thu 04:03:37 PM 30.7503 -93.4006 237° Southwest 464 534 32,000 -2,032 Descending Houston Center
Thu 04:04:39 PM 30.6658 -93.5514 237° Southwest 467 537 28,900 -2,758 Descending Houston Center
Thu 04:05:41 PM 30.5969 -93.6714 236° Southwest 458 527 26,300 -2,600 Descending Houston Center
Thu 04:06:39 PM 30.5275 -93.7942 237° Southwest 438 504 23,700 -2,419 Descending Houston Center
Thu 04:06:43 PM 30.5300 -93.7892 60° Northeast 445 512 23,800 -2,091 Climbing Houston Center
Thu 04:07:45 PM 30.4658 -93.9011 236° Southwest 426 490 21,400 -2,571 Descending Houston Center
Thu 04:07:53 PM 30.4492 -93.9311 237° Southwest 415 478 20,800 -2,710 Descending Houston Center
Thu 04:08:47 PM 30.3908 -94.0292 235° Southwest 403 464 18,600 -2,361 Descending Houston Center
Thu 04:08:54 PM 30.3847 -94.0419 241° Southwest 399 459 18,400 -2,095 Descending Houston Center
Thu 04:09:50 PM 30.3314 -94.1331 236° Southwest 390 449 16,400 -2,262 Descending Houston Center
Thu 04:09:55 PM 30.3219 -94.1497 237° Southwest 385 443 16,100 -2,032 Descending Houston Center
Thu 04:10:52 PM 30.2725 -94.2339 236° Southwest 381 438 14,300 -2,129 Descending Houston Center
Thu 04:10:57 PM 30.2664 -94.2467 241° Southwest 373 429 13,900 -2,200 Descending Houston Center
Thu 04:11:52 PM 30.2125 -94.3383 236° Southwest 362 417 12,100 -1,789 Descending Houston Center
Thu 04:11:54 PM 30.2161 -94.3308 61° Northeast 370 426 12,200 -1,219 Climbing Houston Center
Thu 04:12:56 PM 30.1853 -94.4319 251° West 348 400 10,800 -1,754 Descending Houston Center
Thu 04:12:59 PM 30.1822 -94.4561 262° West 324 373 10,300 -677 Descending Houston Center
Thu 04:13:58 PM 30.1672 -94.5475 259° West 326 375 10,100 -197 Descending Houston Center
Thu 04:14:00 PM 30.1650 -94.5600 258° West 327 376 10,100 -103 Level Houston Center
Thu 04:14:56 PM 30.1575 -94.6553 265° West 328 377 10,000 -100 Descending Houston Center
Thu 04:15:00 PM 30.1583 -94.6531 67° East 328 377 10,000 -1,254 Level Houston Center
Thu 04:16:03 PM 30.1492 -94.7650 265° West 299 344 8,600 -1,210 Descending Houston Center
Thu 04:16:59 PM 30.1406 -94.8508 263° West 293 337 7,600 -984 Descending Houston Center
Thu 04:17:04 PM 30.1436 -94.8444 61° Northeast 300 345 7,600 -1,300 Level Houston Center
Thu 04:17:59 PM 30.1342 -94.9408 264° West 275 316 6,300 -1,333 Descending Houston Center
Thu 04:18:07 PM 30.1344 -94.9492 272° West 279 321 6,200 -194 Descending Houston Center
Thu 04:19:01 PM 30.1275 -95.0264 264° West 267 307 6,100 -97 Descending Houston Center
Thu 04:19:09 PM 30.1278 -95.0328 273° West 267 307 6,100  Level Houston Center
Thu 04:20:02 PM 30.1208 -95.1117 264° West 265 305 6,100  Level Houston Center
Thu 04:20:11 PM 30.1208 -95.1175 270° West 266 306 6,100  Level Houston Center
Thu 04:21:04 PM 30.1122 -95.1997 263° West 265 305 6,100  Level Houston Center
Thu 04:21:13 PM 30.1133 -95.2025 295° West 267 307 6,100  Level Houston Center
Thu 04:22:11 PM 30.1064 -95.2947 265° West 270 311 6,100  Level Houston Center
Thu 04:22:15 PM 30.1067 -95.2861 88° East 265 305 6,100 -393 Level Houston Center
Thu 04:23:12 PM 30.1064 -95.3864 270° West 272 313 5,700 -484 Descending Houston Center
Thu 04:23:17 PM 30.1069 -95.3906 279° West 271 312 5,600 -1,452 Descending Houston Center
Thu 04:24:14 PM 30.1078 -95.4708 271° West 266 306 4,200 -1,452 Descending Houston Center
Thu 04:24:19 PM 30.1075 -95.4756 266° West 268 308 4,100 -968 Descending Houston Center
Thu 04:25:16 PM 30.0889 -95.5406 252° West 219 252 3,200 -968 Descending Houston Center
Thu 04:25:21 PM 30.0850 -95.5403 176° South 243 280 3,100 -218 Descending Houston Center
Thu 04:26:11 PM 30.0372 -95.5275 167° South 204 235 3,000 -286 Descending Houston Center
Thu 04:26:24 PM 30.0317 -95.5228 144° Southeast 218 251 2,800 -885 Descending Houston Center
Thu 04:27:12 PM 30.0072 -95.4731 120° Southeast 184 212 2,100 -871 Descending Houston Center
Thu 04:27:26 PM 30.0075 -95.4708 82° East 203 234 1,900 -871 Descending Houston Center
Thu 04:28:14 PM 30.0064 -95.4203 91° East 157 181 1,200 -871 Descending Houston Center
Thu 04:28:28 PM 30.0092 -95.4167 48° Northeast 181 208 1,000 -885 Descending Houston Center
Thu 04:29:15 PM 30.0061 -95.3694 94° East 152 175 300 -484 Descending Houston Center
Thu 04:29:30 PM 30.0081 -95.3622 73° East 169 194 500 800 Climbing Houston Center

Login

Don't have an account? Register now (free) for customized features, flight alerts, and more!